Time;durP1;ratioP1;P1;durP2;ratioP2;P2;SDS_P1;SDS_P2;PMS_P1;PMS_P2;Temp;Humidity;BMP_temperature;BMP_pressure;BME280_temperature;BME280_humidity;BME280_pressure;Samples;Min_cycle;Max_cycle;Signal;HPM_P1;HPM_P2
2022/11/04 00:01:30;;;;;;;1.98;1.80;;;;;;;;;;4962946;28;20035;-85
2022/11/04 00:03:56;;;;;;;3.30;1.98;;;;;;;;;;4949877;29;20038;-87
2022/11/04 00:06:22;;;;;;;8.13;2.38;;;;;;;;;;4946280;29;20054;-87
2022/11/04 00:08:55;;;;;;;8.57;1.70;;;;;;;;;;4947271;29;20087;-84
2022/11/04 00:14:07;;;;;;;3.28;1.40;;;;;;;;;;4945459;29;20122;-85
2022/11/04 00:19:17;;;;;;;5.65;2.67;;;;;;;;;;4943151;29;20372;-85
2022/11/04 00:30:05;;;;;;;2.47;1.83;;;;;;;;;;4945191;29;20061;-83
2022/11/04 00:35:16;;;;;;;3.30;1.75;;;;;;;;;;4942686;29;20046;-88
2022/11/04 00:37:42;;;;;;;2.63;1.42;;;;;;;;;;4945656;29;20031;-88
2022/11/04 00:40:11;;;;;;;1.52;0.85;;;;;;;;;;4944354;29;20107;-88
2022/11/04 00:42:36;;;;;;;4.00;2.05;;;;;;;;;;4946399;29;20032;-84
2022/11/04 00:45:02;;;;;;;2.45;1.08;;;;;;;;;;4942616;29;20115;-88
2022/11/04 00:47:27;;;;;;;2.83;1.48;;;;;;;;;;4939592;29;20023;-86
2022/11/04 00:49:53;;;;;;;5.10;2.20;;;;;;;;;;4946453;29;20038;-86
2022/11/04 00:52:18;;;;;;;2.10;1.48;;;;;;;;;;4947800;29;20035;-90
2022/11/04 00:54:44;;;;;;;3.22;1.90;;;;;;;;;;4948072;29;20037;-88
2022/11/04 00:57:10;;;;;;;4.70;2.03;;;;;;;;;;4944911;29;20032;-89
2022/11/04 00:59:36;;;;;;;2.13;1.50;;;;;;;;;;4945199;29;20038;-86
2022/11/04 01:02:02;;;;;;;2.25;1.58;;;;;;;;;;4947534;29;20051;-88
2022/11/04 01:04:27;;;;;;;2.03;1.48;;;;;;;;;;4945064;29;20395;-86
2022/11/04 01:06:53;;;;;;;4.88;2.53;;;;;;;;;;4944076;29;20024;-88
2022/11/04 01:09:18;;;;;;;1.85;1.27;;;;;;;;;;4940582;29;20031;-87
2022/11/04 01:11:44;;;;;;;1.48;1.38;;;;;;;;;;4943270;29;20023;-86
2022/11/04 01:14:10;;;;;;;2.13;1.45;;;;;;;;;;4945847;29;20439;-82
2022/11/04 01:16:36;;;;;;;4.28;2.25;;;;;;;;;;4943834;29;20023;-87
2022/11/04 01:19:02;;;;;;;3.17;2.33;;;;;;;;;;4942976;29;20382;-85
2022/11/04 01:21:27;;;;;;;3.60;2.20;;;;;;;;;;4943017;29;20412;-86
2022/11/04 01:23:53;;;;;;;2.58;2.15;;;;;;;;;;4939830;29;20031;-87
2022/11/04 01:26:21;;;;;;;1.88;1.17;;;;;;;;;;4938235;29;20035;-84
2022/11/04 01:28:47;;;;;;;4.60;2.47;;;;;;;;;;4941038;29;20396;-85
2022/11/04 01:31:24;;;;;;;6.95;2.22;;;;;;;;;;4941954;29;20445;-85
2022/11/04 01:33:52;;;;;;;3.65;1.75;;;;;;;;;;4938082;29;20039;-82
2022/11/04 01:36:18;;;;;;;12.07;2.42;;;;;;;;;;4939675;29;20825;-87
2022/11/04 01:38:43;;;;;;;2.58;1.80;;;;;;;;;;4947586;29;20152;-85
2022/11/04 01:41:25;;;;;;;2.03;1.83;;;;;;;;;;4947348;29;20027;-86
2022/11/04 01:43:51;;;;;;;2.85;1.95;;;;;;;;;;4942056;29;20023;-86
2022/11/04 01:46:25;;;;;;;2.75;1.75;;;;;;;;;;4941867;29;20027;-83
2022/11/04 01:48:53;;;;;;;2.35;1.88;;;;;;;;;;4939920;29;20043;-83
2022/11/04 01:51:20;;;;;;;3.10;2.50;;;;;;;;;;4945703;29;20030;-86
2022/11/04 01:53:47;;;;;;;9.40;2.65;;;;;;;;;;4941086;29;20042;-85
2022/11/04 01:56:15;;;;;;;4.10;2.05;;;;;;;;;;4945809;29;20023;-83
2022/11/04 01:58:48;;;;;;;8.13;2.45;;;;;;;;;;4942342;29;20032;-85
2022/11/04 02:01:13;;;;;;;2.08;1.40;;;;;;;;;;4955634;28;20047;-87
2022/11/04 02:03:53;;;;;;;1.63;1.27;;;;;;;;;;4945230;29;20510;-83
2022/11/04 02:06:20;;;;;;;1.55;1.38;;;;;;;;;;4940998;29;20034;-86
2022/11/04 02:08:46;;;;;;;2.38;1.38;;;;;;;;;;4947840;29;20038;-85
2022/11/04 02:12:48;;;;;;;3.33;2.28;;;;;;;;;;4938396;29;20380;-87
2022/11/04 02:13:58;;;;;;;3.67;1.98;;;;;;;;;;4949950;29;20031;-83
2022/11/04 02:16:43;;;;;;;6.88;2.42;;;;;;;;;;4946710;29;20032;-90
2022/11/04 02:19:38;;;;;;;2.40;2.05;;;;;;;;;;4938857;29;20023;-86
2022/11/04 02:22:21;;;;;;;2.95;1.90;;;;;;;;;;4939507;29;20048;-87
2022/11/04 02:24:55;;;;;;;3.75;2.20;;;;;;;;;;4942974;29;20042;-87
2022/11/04 02:27:31;;;;;;;2.88;2.08;;;;;;;;;;4963805;28;20036;-86
2022/11/04 02:30:15;;;;;;;3.20;2.17;;;;;;;;;;4938298;29;20374;-85
2022/11/04 02:33:05;;;;;;;3.03;2.10;;;;;;;;;;4935526;29;20027;-85
2022/11/04 02:35:48;;;;;;;;;;;;;;;;;;4939294;29;20019;-86
2022/11/04 02:38:28;;;;;;;5.57;2.88;;;;;;;;;;4942429;29;19918;-89
2022/11/04 02:41:19;;;;;;;3.88;2.03;;;;;;;;;;4942523;29;20488;-85
2022/11/04 02:44:07;;;;;;;4.82;2.63;;;;;;;;;;4933726;28;20143;-85
2022/11/04 02:46:50;;;;;;;2.63;2.13;;;;;;;;;;4930745;29;20122;-88
2022/11/04 02:49:49;;;;;;;4.72;1.90;;;;;;;;;;4939168;29;20062;-86
2022/11/04 02:52:26;;;;;;;2.78;1.50;;;;;;;;;;4940459;29;20476;-86
2022/11/04 02:55:01;;;;;;;4.13;2.15;;;;;;;;;;4931550;29;20039;-89
2022/11/04 02:57:34;;;;;;;6.15;2.00;;;;;;;;;;4944763;29;20075;-83
2022/11/04 03:00:03;;;;;;;6.20;2.47;;;;;;;;;;4942922;29;20031;-85
2022/11/04 03:02:54;;;;;;;7.30;2.97;;;;;;;;;;4943634;29;20536;-86
2022/11/04 03:05:25;;;;;;;5.10;2.70;;;;;;;;;;4935754;29;20377;-87
2022/11/04 03:07:54;;;;;;;2.03;1.70;;;;;;;;;;4939996;29;20059;-89
2022/11/04 03:10:33;;;;;;;3.65;2.47;;;;;;;;;;4955888;28;20027;-88
2022/11/04 03:13:05;;;;;;;5.25;2.10;;;;;;;;;;4942694;29;20511;-86
2022/11/04 03:15:33;;;;;;;4.28;2.13;;;;;;;;;;4940681;29;20027;-84
2022/11/04 03:18:01;;;;;;;5.30;2.95;;;;;;;;;;4941960;29;20103;-88
2022/11/04 03:20:29;;;;;;;8.90;1.75;;;;;;;;;;4958059;28;20472;-88
2022/11/04 03:22:59;;;;;;;16.10;2.83;;;;;;;;;;4938174;29;20091;-89
2022/11/04 03:25:49;;;;;;;5.18;2.25;;;;;;;;;;4944698;29;20399;-84
2022/11/04 03:28:14;;;;;;;3.83;1.55;;;;;;;;;;4931525;29;20512;-89
2022/11/04 03:30:45;;;;;;;3.15;2.53;;;;;;;;;;4945410;29;20027;-87
2022/11/04 03:33:26;;;;;;;5.68;2.13;;;;;;;;;;4941192;29;20098;-85
2022/11/04 03:35:52;;;;;;;1.98;1.77;;;;;;;;;;4942745;29;20453;-86
2022/11/04 03:38:20;;;;;;;3.47;2.03;;;;;;;;;;4943357;29;20038;-92
2022/11/04 03:40:45;;;;;;;1.33;1.15;;;;;;;;;;4942324;29;20467;-85
2022/11/04 03:43:15;;;;;;;5.38;1.83;;;;;;;;;;4945146;29;20035;-87
2022/11/04 03:45:41;;;;;;;2.72;2.10;;;;;;;;;;4937971;29;20039;-86
2022/11/04 03:48:07;;;;;;;2.78;1.58;;;;;;;;;;4943365;29;20110;-86
2022/11/04 03:50:40;;;;;;;3.25;2.22;;;;;;;;;;4940545;29;20115;-86
2022/11/04 03:53:06;;;;;;;1.90;1.73;;;;;;;;;;4943290;29;20110;-86
2022/11/04 03:55:41;;;;;;;3.90;2.00;;;;;;;;;;4943349;29;20038;-88
2022/11/04 03:58:16;;;;;;;3.47;1.92;;;;;;;;;;4952696;29;20023;-85
2022/11/04 04:00:50;;;;;;;2.60;1.98;;;;;;;;;;4942288;29;20039;-83
2022/11/04 04:03:31;;;;;;;4.68;1.98;;;;;;;;;;4948383;29;20039;-83
2022/11/04 04:06:09;;;;;;;2.72;2.30;;;;;;;;;;4941532;29;20028;-87
2022/11/04 04:08:40;;;;;;;4.43;2.00;;;;;;;;;;4945054;29;20051;-86
2022/11/04 04:11:40;;;;;;;5.57;2.90;;;;;;;;;;4947850;29;20023;-88
2022/11/04 04:14:11;;;;;;;3.20;2.17;;;;;;;;;;4941895;29;20119;-86
2022/11/04 04:16:47;;;;;;;3.30;2.30;;;;;;;;;;4952864;29;20035;-85
2022/11/04 04:19:23;;;;;;;4.85;2.30;;;;;;;;;;4946655;29;20047;-87
2022/11/04 04:21:55;;;;;;;4.60;2.78;;;;;;;;;;4941657;29;20079;-85
2022/11/04 04:29:53;;;;;;;6.30;1.98;;;;;;;;;;4942838;29;20045;-84
2022/11/04 04:32:21;;;;;;;4.40;3.25;;;;;;;;;;4949259;29;20118;-83
2022/11/04 04:34:47;;;;;;;3.58;2.40;;;;;;;;;;4943908;29;20085;-85
2022/11/04 04:37:21;;;;;;;4.28;3.38;;;;;;;;;;4943617;29;20034;-87
2022/11/04 04:45:35;;;;;;;4.53;3.20;;;;;;;;;;4938559;29;20560;-86
2022/11/04 04:48:00;;;;;;;7.57;4.55;;;;;;;;;;4946548;29;20016;-86
2022/11/04 04:50:36;;;;;;;3.28;2.28;;;;;;;;;;4945372;29;20106;-85
2022/11/04 04:53:03;;;;;;;2.70;1.67;;;;;;;;;;4940732;29;20506;-86
2022/11/04 04:55:30;;;;;;;2.85;1.85;;;;;;;;;;4944467;29;20032;-87
2022/11/04 04:57:56;;;;;;;8.52;3.35;;;;;;;;;;4942106;29;20023;-85
2022/11/04 05:00:21;;;;;;;5.32;2.75;;;;;;;;;;4942655;29;20028;-84
2022/11/04 05:02:47;;;;;;;13.48;2.53;;;;;;;;;;4950054;29;20102;-82
2022/11/04 05:05:13;;;;;;;4.93;2.75;;;;;;;;;;4944911;29;20407;-82
2022/11/04 05:07:39;;;;;;;4.30;2.30;;;;;;;;;;4941033;29;20119;-86
2022/11/04 05:10:09;;;;;;;5.88;3.08;;;;;;;;;;4940892;29;20105;-90
2022/11/04 05:15:19;;;;;;;3.63;2.70;;;;;;;;;;4941151;29;20021;-87
2022/11/04 05:17:44;;;;;;;7.18;3.45;;;;;;;;;;4944950;29;20067;-88
2022/11/04 05:20:10;;;;;;;6.68;3.78;;;;;;;;;;4949562;29;20453;-88
2022/11/04 05:22:35;;;;;;;4.35;2.78;;;;;;;;;;4939045;29;20053;-88
2022/11/04 05:25:01;;;;;;;4.47;3.75;;;;;;;;;;4940406;29;20023;-89
2022/11/04 05:27:26;;;;;;;7.28;3.33;;;;;;;;;;4946531;29;20035;-87
2022/11/04 05:29:52;;;;;;;3.58;2.80;;;;;;;;;;4944500;29;20036;-87
2022/11/04 05:32:17;;;;;;;4.55;3.10;;;;;;;;;;4944390;29;20476;-87
2022/11/04 05:34:42;;;;;;;3.65;2.83;;;;;;;;;;4940806;29;20708;-87
2022/11/04 05:37:08;;;;;;;5.75;2.65;;;;;;;;;;4944891;29;20468;-86
2022/11/04 05:39:33;;;;;;;6.75;4.65;;;;;;;;;;4947226;29;20027;-88
2022/11/04 05:41:59;;;;;;;4.15;3.38;;;;;;;;;;4941620;29;20023;-90
2022/11/04 05:44:25;;;;;;;7.13;3.83;;;;;;;;;;4944643;29;20174;-88
2022/11/04 05:46:50;;;;;;;5.47;3.47;;;;;;;;;;4947690;29;20543;-88
2022/11/04 05:49:16;;;;;;;5.63;3.35;;;;;;;;;;4945704;29;20024;-87
2022/11/04 05:51:42;;;;;;;8.40;3.80;;;;;;;;;;4943192;29;20103;-87
2022/11/04 05:54:08;;;;;;;5.63;4.28;;;;;;;;;;4945242;29;20023;-87
2022/11/04 05:56:33;;;;;;;5.07;3.90;;;;;;;;;;4942049;29;20055;-86
2022/11/04 05:58:58;;;;;;;8.90;5.03;;;;;;;;;;4940186;29;20404;-86
2022/11/04 06:01:31;;;;;;;7.10;4.40;;;;;;;;;;4942683;29;20063;-87
2022/11/04 06:03:58;;;;;;;6.00;3.92;;;;;;;;;;4941382;29;20036;-88
2022/11/04 06:06:26;;;;;;;6.45;4.00;;;;;;;;;;4943322;29;20405;-86
2022/11/04 06:08:52;;;;;;;7.13;4.25;;;;;;;;;;4942295;29;20476;-86
2022/11/04 06:11:19;;;;;;;7.55;4.63;;;;;;;;;;4942171;29;20036;-87
2022/11/04 06:13:44;;;;;;;5.97;4.18;;;;;;;;;;4944029;29;20027;-88
2022/11/04 06:16:09;;;;;;;10.63;4.82;;;;;;;;;;4940364;29;20412;-87
2022/11/04 06:18:35;;;;;;;6.28;4.15;;;;;;;;;;4941525;29;20023;-88
2022/11/04 06:21:06;;;;;;;7.28;4.15;;;;;;;;;;4945906;29;20074;-85
2022/11/04 06:23:32;;;;;;;6.78;4.20;;;;;;;;;;4963441;28;20107;-88
2022/11/04 06:25:57;;;;;;;4.40;3.72;;;;;;;;;;4940484;29;20130;-87
2022/11/04 06:28:23;;;;;;;6.95;5.35;;;;;;;;;;4942334;29;20036;-86
2022/11/04 06:30:48;;;;;;;8.48;4.53;;;;;;;;;;4942303;29;20079;-85
2022/11/04 06:33:13;;;;;;;5.47;4.88;;;;;;;;;;4947158;29;20144;-85
2022/11/04 06:35:39;;;;;;;6.28;4.13;;;;;;;;;;4944126;29;20027;-86
2022/11/04 06:38:04;;;;;;;5.43;3.92;;;;;;;;;;4941280;29;21162;-85
2022/11/04 06:40:29;;;;;;;7.60;4.70;;;;;;;;;;4946055;29;20029;-84
2022/11/04 06:42:55;;;;;;;6.80;4.25;;;;;;;;;;4940506;29;20480;-86
2022/11/04 06:45:20;;;;;;;4.82;3.88;;;;;;;;;;4942681;29;20456;-86
2022/11/04 06:47:46;;;;;;;10.35;5.00;;;;;;;;;;4941823;29;20034;-87
2022/11/04 06:50:12;;;;;;;5.97;4.53;;;;;;;;;;4942518;29;20851;-86
2022/11/04 06:52:37;;;;;;;6.50;4.28;;;;;;;;;;4942914;29;20038;-89
2022/11/04 06:55:03;;;;;;;7.32;4.90;;;;;;;;;;4943982;29;20171;-86
2022/11/04 06:57:28;;;;;;;5.68;3.97;;;;;;;;;;4942763;28;20087;-86
2022/11/04 06:59:54;;;;;;;7.38;5.63;;;;;;;;;;4944508;29;20031;-86
2022/11/04 07:02:19;;;;;;;6.35;4.55;;;;;;;;;;4941933;29;20166;-87
2022/11/04 07:04:44;;;;;;;5.75;4.03;;;;;;;;;;4950420;29;20528;-86
2022/11/04 07:07:10;;;;;;;10.13;5.55;;;;;;;;;;4948265;29;20123;-87
2022/11/04 09:04:21;;;;;;;9.98;5.25;;;;;;;;;;4917598;29;20540;-88
2022/11/04 09:06:47;;;;;;;9.90;6.20;;;;;;;;;;4907893;29;20036;-90
2022/11/04 09:09:15;;;;;;;7.82;4.43;;;;;;;;;;4900452;29;20113;-86
2022/11/04 09:11:42;;;;;;;7.95;5.00;;;;;;;;;;4917727;29;20028;-88
2022/11/04 09:14:08;;;;;;;12.18;5.60;;;;;;;;;;4916166;29;20032;-86
2022/11/04 09:16:34;;;;;;;12.82;5.20;;;;;;;;;;4912626;29;20028;-86
2022/11/04 09:19:00;;;;;;;6.03;3.97;;;;;;;;;;4914104;29;20043;-87
2022/11/04 09:21:26;;;;;;;8.18;3.80;;;;;;;;;;4917060;29;20065;-85
2022/11/04 09:23:53;;;;;;;9.07;5.40;;;;;;;;;;4917105;29;20036;-89
2022/11/04 09:26:21;;;;;;;8.90;5.63;;;;;;;;;;4918114;29;20119;-87
2022/11/04 09:28:47;;;;;;;7.90;3.88;;;;;;;;;;4897517;29;20028;-88
2022/11/04 09:31:16;;;;;;;5.13;3.70;;;;;;;;;;4898514;29;20039;-89
2022/11/04 09:33:41;;;;;;;8.93;4.18;;;;;;;;;;4899241;29;20042;-86
2022/11/04 09:36:08;;;;;;;13.75;5.53;;;;;;;;;;4915338;29;20532;-86
2022/11/04 09:38:35;;;;;;;7.22;4.45;;;;;;;;;;4916642;29;20028;-85
2022/11/04 09:41:09;;;;;;;10.30;5.35;;;;;;;;;;4904914;29;20115;-84
2022/11/04 09:44:08;;;;;;;5.82;4.13;;;;;;;;;;4894668;29;20044;-86
2022/11/04 09:46:35;;;;;;;13.15;5.55;;;;;;;;;;4911223;29;20485;-84
2022/11/04 09:49:03;;;;;;;6.70;4.32;;;;;;;;;;4915729;29;20061;-84
2022/11/04 09:51:29;;;;;;;7.97;4.90;;;;;;;;;;4894762;29;20558;-87
2022/11/04 09:53:58;;;;;;;7.10;4.60;;;;;;;;;;4912393;29;20107;-88
2022/11/04 09:56:32;;;;;;;8.65;4.75;;;;;;;;;;4916242;29;20445;-85
2022/11/04 09:58:58;;;;;;;6.80;4.57;;;;;;;;;;4895996;29;20024;-86
2022/11/04 10:02:01;;;;;;;9.35;5.55;;;;;;;;;;4915627;29;20107;-86
2022/11/04 10:04:59;;;;;;;8.57;4.35;;;;;;;;;;4915995;29;20489;-88
2022/11/04 10:07:50;;;;;;;10.38;5.10;;;;;;;;;;4907960;29;20025;-89
2022/11/04 10:10:44;;;;;;;10.95;4.97;;;;;;;;;;4897820;29;20047;-87
2022/11/04 10:13:31;;;;;;;12.20;6.30;;;;;;;;;;4914285;29;20840;-86
2022/11/04 10:16:12;;;;;;;17.35;5.78;;;;;;;;;;4914196;29;20422;-86
2022/11/04 10:19:07;;;;;;;6.35;3.95;;;;;;;;;;4916067;29;20511;-87
2022/11/04 10:22:09;;;;;;;13.93;5.03;;;;;;;;;;4909391;29;20048;-88
2022/11/04 10:24:45;;;;;;;9.63;4.93;;;;;;;;;;4913699;29;20028;-90
2022/11/04 10:27:40;;;;;;;8.48;4.65;;;;;;;;;;4913279;29;20508;-87
2022/11/04 10:30:15;;;;;;;8.73;5.55;;;;;;;;;;4909471;29;20537;-88
2022/11/04 10:32:46;;;;;;;8.98;5.15;;;;;;;;;;4906670;29;20036;-85
2022/11/04 10:35:21;;;;;;;15.00;6.55;;;;;;;;;;4914114;29;20139;-86
2022/11/04 10:37:51;;;;;;;9.73;4.53;;;;;;;;;;4897094;29;20046;-84
2022/11/04 10:40:27;;;;;;;13.18;5.18;;;;;;;;;;4911150;29;20040;-87
2022/11/04 10:42:56;;;;;;;9.15;6.05;;;;;;;;;;4913363;29;20032;-87
2022/11/04 10:45:29;;;;;;;12.23;7.05;;;;;;;;;;4895230;29;20020;-83
2022/11/04 10:48:04;;;;;;;11.60;5.80;;;;;;;;;;4917078;29;20071;-85
2022/11/04 10:50:38;;;;;;;11.27;4.90;;;;;;;;;;4906933;29;20043;-86
2022/11/04 10:53:19;;;;;;;11.25;5.38;;;;;;;;;;4915180;29;20032;-84
2022/11/04 10:56:05;;;;;;;15.00;5.43;;;;;;;;;;4913543;29;20127;-85
2022/11/04 10:58:35;;;;;;;8.43;5.53;;;;;;;;;;4898930;29;20378;-87
2022/11/04 11:01:30;;;;;;;10.50;6.22;;;;;;;;;;4891430;29;20037;-84
2022/11/04 11:03:57;;;;;;;9.40;4.90;;;;;;;;;;4913695;29;20466;-86
2022/11/04 11:06:30;;;;;;;6.65;4.13;;;;;;;;;;4913735;29;20028;-84
2022/11/04 11:08:58;;;;;;;7.38;3.95;;;;;;;;;;4915002;29;20556;-84
2022/11/04 11:11:46;;;;;;;10.18;4.90;;;;;;;;;;4897459;29;20035;-83
2022/11/04 11:14:38;;;;;;;9.85;4.55;;;;;;;;;;4915659;29;20035;-84
2022/11/04 11:17:24;;;;;;;6.60;3.67;;;;;;;;;;4911099;29;20055;-85
2022/11/04 11:19:53;;;;;;;7.78;4.03;;;;;;;;;;4915356;29;20034;-87
2022/11/04 11:22:40;;;;;;;5.32;3.60;;;;;;;;;;4915550;29;20039;-87
2022/11/04 11:25:24;;;;;;;7.00;4.00;;;;;;;;;;4914897;29;20042;-85
2022/11/04 11:28:09;;;;;;;8.93;3.47;;;;;;;;;;4914733;29;20495;-85
2022/11/04 11:30:45;;;;;;;6.90;4.32;;;;;;;;;;4909578;29;20074;-86
2022/11/04 11:33:17;;;;;;;7.80;4.70;;;;;;;;;;4909806;29;20047;-84
2022/11/04 11:35:55;;;;;;;7.47;4.22;;;;;;;;;;4914615;29;20043;-87
2022/11/04 11:38:24;;;;;;;4.85;3.45;;;;;;;;;;4915074;29;20039;-86
2022/11/04 11:40:53;;;;;;;4.27;2.93;;;;;;;;;;4910594;29;20039;-85
2022/11/04 11:43:28;;;;;;;5.88;3.67;;;;;;;;;;4915242;29;20039;-85
2022/11/04 11:45:56;;;;;;;5.13;3.58;;;;;;;;;;4916219;29;20065;-87
2022/11/04 11:48:41;;;;;;;5.32;3.55;;;;;;;;;;4903850;29;20029;-84
2022/11/04 11:51:48;;;;;;;9.63;5.13;;;;;;;;;;4896235;29;20040;-87
2022/11/04 11:55:11;;;;;;;;;;;;;;;;;;;;;
2022/11/04 11:58:57;;;;;;;;;;;;;;;;;;;;;
2022/11/04 12:54:17;;;;;;;;;;;;;;;;;;;;;
2022/11/04 13:22:03;;;;;;;6.53;3.05;;;;;;;;;;4824213;29;20073;-88
2022/11/04 13:24:45;;;;;;;7.28;3.55;;;;;;;;;;4805742;29;20089;-87
2022/11/04 13:28:05;;;;;;;7.32;3.60;;;;;;;;;;4831333;29;20096;-88
2022/11/04 13:30:37;;;;;;;7.20;3.50;;;;;;;;;;4881691;29;20040;-89
2022/11/04 13:33:21;;;;;;;6.05;3.53;;;;;;;;;;4921446;29;20032;-88
2022/11/04 13:36:09;;;;;;;6.20;3.60;;;;;;;;;;4910978;29;20035;-88
2022/11/04 13:38:54;;;;;;;8.10;3.47;;;;;;;;;;4923686;29;20465;-89
2022/11/04 13:41:29;;;;;;;6.93;3.38;;;;;;;;;;4903683;29;20044;-90
2022/11/04 13:43:56;;;;;;;5.80;3.47;;;;;;;;;;4917674;29;20056;-91
2022/11/04 13:46:29;;;;;;;5.53;2.40;;;;;;;;;;4895336;29;20646;-86
2022/11/04 13:48:59;;;;;;;7.47;2.85;;;;;;;;;;4900691;29;20131;-92
2022/11/04 13:51:32;;;;;;;;;;;;;;;;;;4896380;29;20481;-95
2022/11/04 13:53:58;;;;;;;6.65;3.50;;;;;;;;;;4911597;29;19923;-90
2022/11/04 13:56:30;;;;;;;6.30;3.88;;;;;;;;;;4915819;29;20024;-89
2022/11/04 13:59:00;;;;;;;6.45;3.63;;;;;;;;;;4903436;29;20021;-93
2022/11/04 14:01:27;;;;;;;;;;;;;;;;;;4888891;29;20171;-88
2022/11/04 14:04:17;;;;;;;6.72;3.65;;;;;;;;;;4915448;29;19915;-89
2022/11/04 14:06:57;;;;;;;18.88;3.53;;;;;;;;;;4910942;29;20844;-88
2022/11/04 14:09:31;;;;;;;4.35;2.80;;;;;;;;;;4911432;29;20425;-87
2022/11/04 14:12:17;;;;;;;7.28;2.38;;;;;;;;;;4917696;29;20381;-87
2022/11/04 14:14:55;;;;;;;5.07;2.55;;;;;;;;;;4893333;29;20087;-88
2022/11/04 14:17:33;;;;;;;7.97;3.20;;;;;;;;;;4901696;29;20039;-90
2022/11/04 14:20:07;;;;;;;6.80;2.75;;;;;;;;;;4900585;29;20032;-89
2022/11/04 14:22:42;;;;;;;4.20;2.10;;;;;;;;;;4916051;29;20455;-86
2022/11/04 14:25:33;;;;;;;2.33;1.63;;;;;;;;;;4901817;29;20036;-89
2022/11/04 14:28:17;;;;;;;34.10;12.93;;;;;;;;;;4912623;29;20024;-83
2022/11/04 14:30:48;;;;;;;12.00;3.90;;;;;;;;;;4903234;29;20409;-89
2022/11/04 14:33:32;;;;;;;5.18;2.20;;;;;;;;;;4889173;29;20087;-89
2022/11/04 14:36:19;;;;;;;28.30;12.25;;;;;;;;;;4912892;29;20026;-90
2022/11/04 14:38:55;;;;;;;16.23;7.07;;;;;;;;;;4899622;29;20044;-85
2022/11/04 14:41:21;;;;;;;22.75;6.10;;;;;;;;;;4914676;29;20060;-88
2022/11/04 14:43:47;;;;;;;3.85;2.00;;;;;;;;;;4912160;29;20036;-89
2022/11/04 14:46:39;;;;;;;7.78;2.58;;;;;;;;;;4905101;29;20056;-91
2022/11/04 14:49:04;;;;;;;3.92;2.20;;;;;;;;;;4915080;29;20051;-90
2022/11/04 14:51:32;;;;;;;4.15;2.55;;;;;;;;;;4912929;29;20028;-89
2022/11/04 14:54:19;;;;;;;7.18;3.80;;;;;;;;;;4910826;29;20481;-89
2022/11/04 14:56:45;;;;;;;7.60;2.20;;;;;;;;;;4912436;29;20028;-87
2022/11/04 14:59:21;;;;;;;9.30;2.60;;;;;;;;;;4918140;29;20131;-90
2022/11/04 15:01:48;;;;;;;3.33;1.60;;;;;;;;;;4908209;29;20028;-90
2022/11/04 15:04:26;;;;;;;7.28;1.75;;;;;;;;;;4916111;29;20039;-88
2022/11/04 15:06:59;;;;;;;1.83;1.40;;;;;;;;;;4906292;29;20112;-90
2022/11/04 15:09:28;;;;;;;2.40;1.23;;;;;;;;;;4916160;29;20548;-89
2022/11/04 15:15:26;;;;;;;3.53;1.70;;;;;;;;;;4910671;29;20126;-89
2022/11/04 15:17:55;;;;;;;4.32;1.63;;;;;;;;;;4903176;29;20478;-89
2022/11/04 15:20:28;;;;;;;1.80;1.10;;;;;;;;;;4915413;29;20115;-87
2022/11/04 15:22:55;;;;;;;2.75;1.60;;;;;;;;;;4911544;29;20036;-89
2022/11/04 15:25:20;;;;;;;4.40;1.25;;;;;;;;;;4894575;29;20115;-91
2022/11/04 15:27:46;;;;;;;2.97;1.48;;;;;;;;;;4910145;29;20524;-91
2022/11/04 15:30:19;;;;;;;3.97;1.08;;;;;;;;;;4912789;29;20164;-89
2022/11/04 15:33:00;;;;;;;2.05;1.10;;;;;;;;;;4895807;29;20024;-90
2022/11/04 15:35:30;;;;;;;3.20;1.52;;;;;;;;;;4890489;29;20156;-90
2022/11/04 15:37:58;;;;;;;4.68;1.27;;;;;;;;;;4900077;29;20436;-90
2022/11/04 15:40:27;;;;;;;3.75;1.60;;;;;;;;;;4901074;29;20400;-88
2022/11/04 15:42:54;;;;;;;2.97;1.35;;;;;;;;;;4910862;29;20032;-87
2022/11/04 15:45:58;;;;;;;1.88;1.30;;;;;;;;;;4898453;29;20107;-87
2022/11/04 15:48:36;;;;;;;1.45;1.23;;;;;;;;;;4873555;29;20517;-84
2022/11/04 15:51:19;;;;;;;3.28;2.58;;;;;;;;;;4874929;29;20037;-90
2022/11/04 15:54:17;;;;;;;4.22;1.58;;;;;;;;;;4886267;29;20338;-85
2022/11/04 15:56:51;;;;;;;2.95;1.20;;;;;;;;;;4918629;29;20523;-87
2022/11/04 15:59:26;;;;;;;1.02;0.95;;;;;;;;;;4912095;29;20084;-88
2022/11/04 16:01:52;;;;;;;2.95;1.25;;;;;;;;;;4912099;29;20028;-90
2022/11/04 16:04:21;;;;;;;4.38;1.55;;;;;;;;;;4919013;29;20040;-85
2022/11/04 16:07:09;;;;;;;2.28;1.45;;;;;;;;;;4916971;29;20458;-88
2022/11/04 16:09:47;;;;;;;2.55;1.52;;;;;;;;;;4912405;29;20534;-88
2022/11/04 16:12:16;;;;;;;3.20;2.15;;;;;;;;;;4911698;29;20486;-85
2022/11/04 16:14:52;;;;;;;3.70;1.95;;;;;;;;;;4901365;29;20050;-87
2022/11/04 16:17:20;;;;;;;2.65;2.10;;;;;;;;;;4914893;29;20060;-86
2022/11/04 16:19:48;;;;;;;2.30;1.50;;;;;;;;;;4897579;29;20537;-89
2022/11/04 16:22:20;;;;;;;2.05;1.17;;;;;;;;;;4915133;29;20036;-85
2022/11/04 16:24:48;;;;;;;2.65;1.35;;;;;;;;;;4898566;29;20103;-90
2022/11/04 16:27:17;;;;;;;2.55;1.38;;;;;;;;;;4915360;29;20036;-87
2022/11/04 16:29:51;;;;;;;1.95;1.27;;;;;;;;;;4917072;29;20401;-88
2022/11/04 16:32:28;;;;;;;1.88;0.90;;;;;;;;;;4915951;29;20096;-87
2022/11/04 16:35:00;;;;;;;0.93;0.77;;;;;;;;;;4919767;29;20028;-86
2022/11/04 16:37:26;;;;;;;1.75;1.10;;;;;;;;;;4898421;29;20032;-87
2022/11/04 16:39:52;;;;;;;2.90;1.23;;;;;;;;;;4895982;29;20442;-84
2022/11/04 16:42:17;;;;;;;5.00;1.25;;;;;;;;;;4914317;29;20127;-86
2022/11/04 16:44:49;;;;;;;1.60;1.10;;;;;;;;;;4916934;29;20035;-84
2022/11/04 16:47:15;;;;;;;2.05;1.27;;;;;;;;;;4911513;29;20067;-86
2022/11/04 16:49:41;;;;;;;1.65;0.90;;;;;;;;;;4901353;29;20079;-87
2022/11/04 16:52:24;;;;;;;1.92;1.23;;;;;;;;;;4917885;29;20024;-86
2022/11/04 16:55:09;;;;;;;2.47;1.60;;;;;;;;;;4891178;29;20071;-84
2022/11/04 16:57:48;;;;;;;4.45;2.33;;;;;;;;;;4916575;29;20115;-82
2022/11/04 17:00:58;;;;;;;3.22;1.85;;;;;;;;;;4873632;29;20041;-84
2022/11/04 17:03:23;;;;;;;4.68;2.88;;;;;;;;;;4870898;29;20142;-83
2022/11/04 17:09:22;;;;;;;4.18;2.10;;;;;;;;;;4820408;29;20406;-86
2022/11/04 17:11:55;;;;;;;7.80;2.22;;;;;;;;;;4863987;29;20045;-85
2022/11/04 17:14:21;;;;;;;10.52;4.95;;;;;;;;;;4871375;29;20039;-85
2022/11/04 17:17:17;;;;;;;9.48;3.58;;;;;;;;;;4871134;29;20048;-83
2022/11/04 17:19:51;;;;;;;4.22;2.50;;;;;;;;;;4874158;29;20051;-82
2022/11/04 17:22:17;;;;;;;5.35;2.65;;;;;;;;;;4858102;29;20120;-82
2022/11/04 17:24:42;;;;;;;3.72;2.45;;;;;;;;;;4879955;29;20124;-87
2022/11/04 17:27:08;;;;;;;5.22;2.70;;;;;;;;;;4898917;29;20043;-85
2022/11/04 17:30:26;;;;;;;4.55;2.60;;;;;;;;;;4916123;29;20338;-85
2022/11/04 17:32:57;;;;;;;4.63;2.63;;;;;;;;;;4881798;29;20037;-87
2022/11/04 17:35:53;;;;;;;4.82;2.72;;;;;;;;;;4909418;29;20044;-87
2022/11/04 17:38:36;;;;;;;3.08;2.22;;;;;;;;;;4917931;29;20059;-88
2022/11/04 17:44:38;;;;;;;3.75;2.30;;;;;;;;;;4912451;29;20039;-86
2022/11/04 17:47:03;;;;;;;3.78;2.10;;;;;;;;;;4888461;29;20501;-84
2022/11/04 17:49:37;;;;;;;5.57;3.28;;;;;;;;;;4915160;29;20024;-83
2022/11/04 17:52:04;;;;;;;6.18;4.28;;;;;;;;;;4896089;29;20035;-89
2022/11/04 17:54:29;;;;;;;5.20;3.22;;;;;;;;;;4906108;29;20445;-83
2022/11/04 17:57:11;;;;;;;4.32;2.63;;;;;;;;;;4895747;29;20164;-87
2022/11/04 17:59:36;;;;;;;2.97;2.33;;;;;;;;;;4908443;29;20052;-84
2022/11/04 18:02:02;;;;;;;7.60;4.45;;;;;;;;;;4898563;29;20040;-88
2022/11/04 18:04:35;;;;;;;3.80;3.03;;;;;;;;;;4917337;29;20032;-88
2022/11/04 18:08:00;;;;;;;5.88;3.20;;;;;;;;;;4901572;29;20078;-87
2022/11/04 18:14:12;;;;;;;5.43;2.58;;;;;;;;;;4916044;29;20560;-88
2022/11/04 18:16:44;;;;;;;11.93;2.28;;;;;;;;;;4896399;29;20060;-87
2022/11/04 18:19:22;;;;;;;3.97;2.45;;;;;;;;;;4895252;29;20036;-88
2022/11/04 18:22:02;;;;;;;8.90;2.22;;;;;;;;;;4894738;29;20123;-86
2022/11/04 18:25:22;;;;;;;3.55;2.65;;;;;;;;;;4896524;29;20036;-86
2022/11/04 18:28:42;;;;;;;4.55;2.25;;;;;;;;;;4915247;29;20442;-87
2022/11/04 18:31:10;;;;;;;3.42;2.45;;;;;;;;;;4898304;29;20075;-87
2022/11/04 18:34:07;;;;;;;5.25;3.63;;;;;;;;;;4901852;29;20500;-85
2022/11/04 18:36:39;;;;;;;4.93;3.25;;;;;;;;;;4914858;29;20071;-88
2022/11/04 18:39:10;;;;;;;10.73;4.95;;;;;;;;;;4898735;29;20079;-87
2022/11/04 18:41:44;;;;;;;5.78;3.35;;;;;;;;;;4912631;29;20504;-87
2022/11/04 18:44:23;;;;;;;6.50;3.42;;;;;;;;;;4913697;29;20028;-89
2022/11/04 18:46:49;;;;;;;6.95;3.92;;;;;;;;;;4896187;29;20033;-88
2022/11/04 18:49:25;;;;;;;13.65;5.07;;;;;;;;;;4899931;29;20032;-85
2022/11/04 18:52:20;;;;;;;6.95;3.40;;;;;;;;;;4896487;29;20128;-88
2022/11/04 18:54:45;;;;;;;7.05;3.85;;;;;;;;;;4897725;29;20024;-90
2022/11/04 18:57:11;;;;;;;7.97;3.80;;;;;;;;;;4913515;29;20477;-89
2022/11/04 18:59:36;;;;;;;5.72;3.83;;;;;;;;;;4893798;29;20056;-84
2022/11/04 19:02:02;;;;;;;14.88;3.38;;;;;;;;;;4917091;29;20032;-85
2022/11/04 19:04:52;;;;;;;5.93;3.13;;;;;;;;;;4915560;29;20035;-87
2022/11/04 19:07:20;;;;;;;6.00;3.72;;;;;;;;;;4911793;29;20045;-85
2022/11/04 19:09:52;;;;;;;16.83;9.38;;;;;;;;;;4914490;29;20091;-83
2022/11/04 19:15:04;;;;;;;6.50;4.53;;;;;;;;;;4914719;29;20401;-86
2022/11/04 19:17:33;;;;;;;6.65;3.60;;;;;;;;;;4899469;29;20035;-89
2022/11/04 19:20:03;;;;;;;5.55;3.72;;;;;;;;;;4915170;29;20458;-84
2022/11/04 19:22:58;;;;;;;;;;;;;;;;;;;;;
2022/11/04 19:25:29;;;;;;;13.38;5.60;;;;;;;;;;4914498;29;20032;-87